Time;durP1;ratioP1;P1;durP2;ratioP2;P2;SDS_P1;SDS_P2;PMS_P1;PMS_P2;Temp;Humidity;BMP_temperature;BMP_pressure;BME280_temperature;BME280_humidity;BME280_pressure;Samples;Min_cycle;Max_cycle;Signal;HPM_P1;HPM_P2
2020/12/30 00:02:07;;;;;;;8.50;4.50;;;0.20;99.90;;;;;;5046020;28;20394;-46
2020/12/30 00:04:32;;;;;;;7.03;4.40;;;0.10;99.90;;;;;;5039416;28;20123;-44
2020/12/30 00:06:58;;;;;;;8.68;5.07;;;0.10;99.90;;;;;;5038671;28;20116;-49
2020/12/30 00:09:23;;;;;;;9.75;5.93;;;0.00;99.90;;;;;;5046237;28;20442;-44
2020/12/30 00:11:49;;;;;;;8.27;5.07;;;0.00;99.90;;;;;;5038325;28;20033;-46
2020/12/30 00:14:14;;;;;;;6.13;3.15;;;0.10;99.90;;;;;;5033560;28;20029;-45
2020/12/30 00:16:40;;;;;;;8.85;5.07;;;0.00;99.90;;;;;;5036672;28;20034;-49
2020/12/30 00:19:05;;;;;;;10.18;4.30;;;0.00;99.90;;;;;;5042142;28;20023;-46
2020/12/30 00:21:31;;;;;;;8.75;4.55;;;-0.10;99.90;;;;;;5039625;28;20037;-45
2020/12/30 00:23:56;;;;;;;5.82;4.50;;;-0.20;99.90;;;;;;5034621;28;20055;-44
2020/12/30 00:26:22;;;;;;;8.50;4.60;;;-0.30;99.90;;;;;;5041237;28;20029;-48
2020/12/30 00:28:47;;;;;;;8.27;3.75;;;-0.30;99.90;;;;;;5035996;28;20491;-47
2020/12/30 00:31:13;;;;;;;8.05;5.35;;;-0.20;99.90;;;;;;5038663;28;20033;-47
2020/12/30 00:33:39;;;;;;;6.60;4.05;;;-0.20;99.90;;;;;;5033348;28;20036;-47
2020/12/30 00:36:06;;;;;;;10.77;5.63;;;-0.20;99.90;;;;;;5036121;28;20025;-45
2020/12/30 00:38:32;;;;;;;7.95;4.70;;;-0.20;99.90;;;;;;5032271;28;20043;-45
2020/12/30 00:40:57;;;;;;;5.00;3.53;;;-0.20;99.90;;;;;;5036965;28;20033;-46
2020/12/30 00:43:23;;;;;;;6.93;5.15;;;-0.30;99.90;;;;;;5034093;28;20033;-44
2020/12/30 00:45:48;;;;;;;15.48;7.15;;;-0.30;99.90;;;;;;5041906;28;20468;-46
2020/12/30 00:48:14;;;;;;;7.45;4.75;;;-0.20;99.90;;;;;;5038477;28;20032;-50
2020/12/30 00:50:39;;;;;;;9.63;5.78;;;-0.10;99.90;;;;;;5036805;28;20045;-48
2020/12/30 00:53:04;;;;;;;11.55;7.07;;;-0.10;99.90;;;;;;5033023;28;20017;-47
2020/12/30 00:55:30;;;;;;;10.73;6.22;;;0.00;99.90;;;;;;5034290;28;20038;-47
2020/12/30 00:57:55;;;;;;;6.47;4.65;;;0.00;99.90;;;;;;5034149;28;22247;-46
2020/12/30 01:00:21;;;;;;;9.95;6.15;;;0.00;99.90;;;;;;5049134;28;20041;-46
2020/12/30 01:02:46;;;;;;;7.68;4.43;;;-0.10;99.90;;;;;;5035529;28;20041;-48
2020/12/30 01:05:12;;;;;;;7.40;5.45;;;-0.10;99.90;;;;;;5042451;28;20486;-46
2020/12/30 01:07:37;;;;;;;8.50;5.25;;;-0.10;99.90;;;;;;5041697;28;20041;-45
2020/12/30 01:10:04;;;;;;;11.90;6.30;;;-0.10;99.90;;;;;;5037597;28;20390;-46
2020/12/30 01:12:30;;;;;;;9.13;4.68;;;-0.10;99.90;;;;;;5037793;28;20028;-45
2020/12/30 01:14:55;;;;;;;6.05;4.07;;;-0.10;99.90;;;;;;5041075;28;20075;-44
2020/12/30 01:17:21;;;;;;;8.70;5.20;;;-0.10;99.90;;;;;;5036074;28;20017;-45
2020/12/30 01:19:46;;;;;;;8.48;4.85;;;-0.10;99.90;;;;;;5031735;28;20380;-45
2020/12/30 01:22:13;;;;;;;10.32;6.18;;;-0.10;99.90;;;;;;5033308;28;20030;-46
2020/12/30 01:24:39;;;;;;;8.25;4.95;;;-0.10;99.90;;;;;;5040687;28;20112;-47
2020/12/30 01:27:04;;;;;;;8.90;4.93;;;-0.10;99.90;;;;;;5030318;28;20109;-47
2020/12/30 01:29:29;;;;;;;11.80;6.75;;;-0.20;99.90;;;;;;5035355;28;20362;-46
2020/12/30 01:31:55;;;;;;;10.30;5.30;;;-0.10;99.90;;;;;;5044926;28;20519;-47
2020/12/30 01:34:20;;;;;;;9.48;5.40;;;-0.10;99.90;;;;;;5039935;28;20029;-45
2020/12/30 01:36:51;;;;;;;7.28;4.78;;;-0.10;99.90;;;;;;5037328;28;20037;-49
2020/12/30 01:39:17;;;;;;;10.50;6.18;;;-0.10;99.90;;;;;;5038543;28;20567;-50
2020/12/30 01:41:42;;;;;;;11.70;6.28;;;-0.10;99.90;;;;;;5034425;28;20073;-47
2020/12/30 01:44:08;;;;;;;11.65;5.05;;;-0.10;99.90;;;;;;5045408;28;20393;-48
2020/12/30 01:46:37;;;;;;;11.02;5.10;;;0.00;99.90;;;;;;5034672;28;20037;-48
2020/12/30 01:49:25;;;;;;;6.93;4.75;;;-0.10;99.90;;;;;;5041126;28;20418;-47
2020/12/30 01:51:52;;;;;;;9.90;6.10;;;-0.10;99.90;;;;;;5033266;28;20518;-45
2020/12/30 01:54:18;;;;;;;8.93;5.57;;;-0.20;99.90;;;;;;5032658;28;20472;-46
2020/12/30 01:56:46;;;;;;;7.97;4.72;;;-0.20;99.90;;;;;;5035640;28;20033;-48
2020/12/30 01:59:15;;;;;;;7.40;4.88;;;-0.20;99.90;;;;;;5037661;28;20169;-47
2020/12/30 02:01:43;;;;;;;8.13;4.57;;;-0.20;99.90;;;;;;5035020;28;20083;-46
2020/12/30 02:04:14;;;;;;;13.25;6.10;;;-0.20;99.90;;;;;;5038794;28;20108;-50
2020/12/30 02:06:40;;;;;;;8.73;5.25;;;-0.10;99.90;;;;;;5036647;28;20034;-44
2020/12/30 02:09:06;;;;;;;8.65;4.88;;;-0.10;99.90;;;;;;5034768;28;20036;-44
2020/12/30 02:11:32;;;;;;;7.85;5.00;;;0.00;99.90;;;;;;5034564;28;20029;-45
2020/12/30 02:14:05;;;;;;;6.85;4.75;;;0.00;99.90;;;;;;5032004;28;20104;-45
2020/12/30 02:16:31;;;;;;;11.57;4.85;;;0.00;99.90;;;;;;5031416;28;20087;-46
2020/12/30 02:18:59;;;;;;;9.80;4.57;;;0.00;99.90;;;;;;5032099;28;20501;-50
2020/12/30 02:21:25;;;;;;;14.40;5.45;;;0.00;99.90;;;;;;5037150;28;20082;-47
2020/12/30 02:23:54;;;;;;;8.13;4.78;;;0.00;99.90;;;;;;5033941;28;20033;-46
2020/12/30 02:26:19;;;;;;;8.85;5.65;;;0.00;99.90;;;;;;5036180;28;20056;-47
2020/12/30 02:28:45;;;;;;;6.22;3.90;;;0.00;99.90;;;;;;5032226;28;20029;-43
2020/12/30 02:31:10;;;;;;;6.43;4.07;;;-0.10;99.90;;;;;;5038804;28;20037;-44
2020/12/30 02:33:36;;;;;;;7.53;4.63;;;0.00;99.90;;;;;;5047143;28;20383;-44
2020/12/30 02:36:01;;;;;;;5.32;4.18;;;0.00;99.90;;;;;;5031290;28;20029;-46
2020/12/30 02:38:27;;;;;;;6.53;4.07;;;0.00;99.90;;;;;;5037819;28;20060;-46
2020/12/30 02:40:52;;;;;;;6.00;4.10;;;0.10;99.90;;;;;;5031281;28;20045;-45
2020/12/30 02:43:18;;;;;;;8.70;4.80;;;0.10;99.90;;;;;;5042007;28;20123;-50
2020/12/30 02:45:43;;;;;;;7.93;4.15;;;0.00;99.90;;;;;;5037508;28;20517;-44
2020/12/30 02:48:09;;;;;;;6.15;4.43;;;0.10;99.90;;;;;;5039861;28;20049;-47
2020/12/30 02:50:34;;;;;;;9.65;4.47;;;0.10;99.90;;;;;;5036027;28;20049;-47
2020/12/30 02:53:00;;;;;;;7.80;4.60;;;0.10;99.90;;;;;;5042438;28;20025;-43
2020/12/30 02:55:25;;;;;;;7.07;4.18;;;0.10;99.90;;;;;;5045228;28;20037;-45
2020/12/30 02:57:51;;;;;;;8.27;3.70;;;0.10;99.90;;;;;;5038103;28;20660;-43
2020/12/30 03:00:16;;;;;;;8.32;5.25;;;0.10;99.90;;;;;;5034513;28;20040;-46
2020/12/30 03:02:42;;;;;;;6.80;3.80;;;0.10;99.90;;;;;;5038564;28;20100;-47
2020/12/30 03:05:07;;;;;;;9.10;4.03;;;0.10;99.90;;;;;;5039047;28;20390;-47
2020/12/30 03:07:33;;;;;;;7.60;4.22;;;0.00;99.90;;;;;;5039361;28;20038;-44
2020/12/30 03:09:58;;;;;;;7.53;3.42;;;-0.10;99.90;;;;;;5034048;28;20087;-46
2020/12/30 03:12:24;;;;;;;6.05;3.25;;;-0.10;99.90;;;;;;5037916;28;20415;-45
2020/12/30 03:14:49;;;;;;;7.28;4.30;;;-0.20;99.90;;;;;;5033867;28;20037;-47
2020/12/30 03:17:15;;;;;;;6.90;4.35;;;-0.30;99.90;;;;;;5033555;28;20520;-46
2020/12/30 03:19:40;;;;;;;5.10;3.45;;;-0.30;99.90;;;;;;5036765;28;20425;-47
2020/12/30 03:22:05;;;;;;;5.05;3.13;;;-0.30;99.90;;;;;;5042765;28;20043;-46
2020/12/30 03:24:31;;;;;;;6.15;3.50;;;-0.40;99.90;;;;;;5033713;28;20410;-47
2020/12/30 03:26:57;;;;;;;7.22;3.75;;;-0.40;99.90;;;;;;5037184;28;20037;-45
2020/12/30 03:29:22;;;;;;;6.78;4.00;;;-0.30;99.90;;;;;;5038993;28;20029;-46
2020/12/30 03:31:48;;;;;;;5.28;3.38;;;-0.30;99.90;;;;;;5044146;28;20038;-43
2020/12/30 03:34:13;;;;;;;7.28;3.30;;;-0.40;99.90;;;;;;5033797;28;20025;-45
2020/12/30 03:36:39;;;;;;;4.28;2.78;;;-0.40;99.90;;;;;;5040302;28;20032;-48
2020/12/30 03:39:05;;;;;;;5.65;3.60;;;-0.50;99.90;;;;;;5034775;28;20042;-47
2020/12/30 03:41:30;;;;;;;6.18;3.50;;;-0.60;99.90;;;;;;5037343;28;20033;-47
2020/12/30 03:43:56;;;;;;;4.45;2.20;;;-0.60;99.90;;;;;;5036174;28;20091;-45
2020/12/30 03:46:22;;;;;;;5.53;3.97;;;-0.60;99.90;;;;;;5034643;28;20042;-45
2020/12/30 03:48:47;;;;;;;6.68;3.60;;;-0.60;99.90;;;;;;5037303;28;20113;-45
2020/12/30 03:51:13;;;;;;;6.57;3.30;;;-0.60;99.90;;;;;;5035881;28;20490;-43
2020/12/30 03:53:39;;;;;;;6.20;3.70;;;-0.70;99.90;;;;;;5037788;28;20064;-45
2020/12/30 03:56:04;;;;;;;7.13;3.80;;;-0.70;99.90;;;;;;5033660;28;20025;-48
2020/12/30 03:58:30;;;;;;;3.90;2.72;;;-0.70;99.90;;;;;;5035369;28;20067;-46
2020/12/30 04:00:55;;;;;;;5.15;2.95;;;-0.80;99.90;;;;;;5033264;28;20486;-43
2020/12/30 04:03:21;;;;;;;5.50;3.40;;;-0.80;99.90;;;;;;5034873;28;20053;-44
2020/12/30 04:05:49;;;;;;;5.43;3.70;;;-0.80;99.90;;;;;;5037577;28;20041;-45
2020/12/30 04:08:15;;;;;;;5.38;3.40;;;-0.70;99.90;;;;;;5044676;28;20033;-45
2020/12/30 04:10:40;;;;;;;8.75;3.67;;;-0.80;99.90;;;;;;5040953;28;20557;-45
2020/12/30 04:13:06;;;;;;;4.13;2.67;;;-0.90;99.90;;;;;;5043612;28;20029;-43
2020/12/30 04:15:31;;;;;;;6.88;2.92;;;-1.00;99.90;;;;;;5050297;28;20053;-46
2020/12/30 04:17:57;;;;;;;6.05;3.40;;;-1.10;99.90;;;;;;5033122;28;20389;-45
2020/12/30 04:20:22;;;;;;;4.75;2.95;;;-1.10;99.90;;;;;;5035938;28;20036;-45
2020/12/30 04:22:47;;;;;;;5.18;2.90;;;-1.20;99.90;;;;;;5036520;28;20519;-47
2020/12/30 04:25:13;;;;;;;6.40;2.95;;;-1.20;99.90;;;;;;5041494;28;20025;-47
2020/12/30 04:27:38;;;;;;;4.63;2.90;;;-1.30;99.90;;;;;;5040472;28;20065;-43
2020/12/30 04:30:04;;;;;;;7.28;4.47;;;-1.40;99.90;;;;;;5032428;28;20082;-47
2020/12/30 04:32:30;;;;;;;7.72;4.07;;;-1.40;99.90;;;;;;5036833;28;20032;-44
2020/12/30 04:34:55;;;;;;;6.00;3.13;;;-1.30;99.90;;;;;;5037751;28;20024;-45
2020/12/30 04:37:21;;;;;;;4.70;3.33;;;-1.30;99.90;;;;;;5036866;28;20040;-44
2020/12/30 04:39:46;;;;;;;6.88;2.70;;;-1.30;99.90;;;;;;5032469;28;21037;-46
2020/12/30 04:42:16;;;;;;;7.65;4.15;;;-1.30;99.90;;;;;;5036614;28;20033;-47
2020/12/30 04:44:48;;;;;;;6.10;3.63;;;-1.30;99.90;;;;;;5036616;28;20025;-44
2020/12/30 04:47:14;;;;;;;6.82;3.72;;;-1.20;99.90;;;;;;5031319;28;20079;-46
2020/12/30 04:49:39;;;;;;;5.13;3.35;;;-1.20;99.90;;;;;;5037472;28;20414;-45
2020/12/30 04:52:05;;;;;;;6.68;3.25;;;-1.20;99.90;;;;;;5039575;28;20622;-46
2020/12/30 04:54:33;;;;;;;6.18;3.35;;;-1.30;99.90;;;;;;5038966;28;20124;-45
2020/12/30 04:57:03;;;;;;;5.97;2.70;;;-1.20;99.90;;;;;;5032503;28;20031;-47
2020/12/30 04:59:33;;;;;;;4.40;3.03;;;-1.30;99.90;;;;;;5035487;28;20036;-46
2020/12/30 05:02:05;;;;;;;7.53;4.90;;;-1.30;99.90;;;;;;5034447;28;20025;-47
2020/12/30 05:04:32;;;;;;;9.88;5.28;;;-1.30;99.90;;;;;;5031950;28;20056;-47
2020/12/30 05:07:08;;;;;;;13.32;5.82;;;-1.20;99.90;;;;;;5031672;28;20069;-48
2020/12/30 05:09:35;;;;;;;14.63;6.25;;;-1.10;99.90;;;;;;5034546;28;20051;-45
2020/12/30 05:12:13;;;;;;;10.35;4.15;;;-1.00;99.90;;;;;;5033809;28;20029;-45
2020/12/30 05:14:39;;;;;;;13.55;5.78;;;-1.00;99.90;;;;;;5039026;28;20515;-48
2020/12/30 05:17:09;;;;;;;9.10;5.30;;;-0.90;99.90;;;;;;5030801;28;20124;-45
2020/12/30 05:19:35;;;;;;;12.20;5.90;;;-0.90;99.90;;;;;;5034312;28;20037;-47
2020/12/30 05:22:01;;;;;;;8.30;4.65;;;-0.90;99.90;;;;;;5033271;28;20029;-45
2020/12/30 05:24:29;;;;;;;10.55;5.25;;;-0.80;99.90;;;;;;5037192;28;20071;-48
2020/12/30 05:26:57;;;;;;;11.02;4.38;;;-0.80;99.90;;;;;;5031884;28;20032;-46
2020/12/30 05:29:24;;;;;;;8.88;3.85;;;-0.80;99.90;;;;;;5038314;28;20025;-45
2020/12/30 05:31:51;;;;;;;11.95;5.35;;;-0.90;99.90;;;;;;5037470;28;20062;-45
2020/12/30 05:34:18;;;;;;;6.68;3.83;;;-1.00;99.90;;;;;;5036657;28;20115;-47
2020/12/30 05:36:46;;;;;;;6.07;3.30;;;-1.00;99.90;;;;;;5033624;28;20041;-47
2020/12/30 05:39:27;;;;;;;10.25;5.25;;;-1.10;99.90;;;;;;5043629;28;20021;-46
2020/12/30 05:42:15;;;;;;;7.80;3.63;;;-1.10;99.90;;;;;;5034305;28;20030;-45
2020/12/30 05:44:42;;;;;;;6.63;3.72;;;-1.10;99.90;;;;;;5038014;28;20065;-49
2020/12/30 05:47:20;;;;;;;7.20;3.90;;;-1.10;99.90;;;;;;5036294;28;20082;-46
2020/12/30 05:49:47;;;;;;;7.68;3.13;;;-1.10;99.90;;;;;;5031712;28;20424;-46
2020/12/30 05:52:19;;;;;;;7.07;4.72;;;-1.10;99.90;;;;;;5032085;28;20379;-48
2020/12/30 05:54:56;;;;;;;8.25;3.78;;;-1.20;99.90;;;;;;5031652;28;20087;-49
2020/12/30 05:57:33;;;;;;;6.93;3.10;;;-1.20;99.90;;;;;;5034894;28;20498;-46
2020/12/30 06:00:13;;;;;;;7.03;3.05;;;-1.20;99.90;;;;;;5031768;28;20482;-47
2020/12/30 06:02:42;;;;;;;4.75;3.10;;;-1.30;99.90;;;;;;5030863;28;20395;-47
2020/12/30 06:05:16;;;;;;;5.90;3.60;;;-1.30;99.90;;;;;;5031482;28;20364;-48
2020/12/30 06:07:49;;;;;;;8.45;3.83;;;-1.30;99.90;;;;;;5030991;28;20109;-47
2020/12/30 06:10:18;;;;;;;4.55;2.75;;;-1.30;99.90;;;;;;5030845;28;20048;-45
2020/12/30 06:12:47;;;;;;;5.70;3.22;;;-1.40;99.90;;;;;;5038095;28;20013;-45
2020/12/30 06:15:20;;;;;;;8.00;2.95;;;-1.50;99.90;;;;;;5036546;28;20041;-47
2020/12/30 06:18:05;;;;;;;5.68;3.00;;;-1.50;99.90;;;;;;5034386;28;20041;-44
2020/12/30 06:20:38;;;;;;;6.35;3.90;;;-1.50;99.90;;;;;;5039058;28;20025;-46
2020/12/30 06:23:14;;;;;;;8.27;2.90;;;-1.50;99.90;;;;;;5038797;28;20033;-45
2020/12/30 06:25:41;;;;;;;5.80;3.45;;;-1.50;99.90;;;;;;5040601;28;20121;-47
2020/12/30 06:28:12;;;;;;;10.98;4.47;;;-1.40;99.90;;;;;;5042513;28;20025;-42
2020/12/30 06:30:41;;;;;;;5.85;3.10;;;-1.50;99.90;;;;;;5038783;28;20044;-45
2020/12/30 06:33:09;;;;;;;5.32;2.92;;;-1.50;99.90;;;;;;5036701;28;20474;-48
2020/12/30 06:35:36;;;;;;;7.45;3.45;;;-1.50;99.90;;;;;;5035116;28;20067;-48
2020/12/30 06:38:23;;;;;;;5.40;2.60;;;-1.50;99.90;;;;;;5039240;28;20445;-45
2020/12/30 06:41:01;;;;;;;5.82;2.67;;;-1.60;99.90;;;;;;5035076;28;20038;-47
2020/12/30 06:43:48;;;;;;;4.75;2.67;;;-1.60;99.90;;;;;;5038713;28;20083;-46
2020/12/30 06:46:22;;;;;;;6.60;3.83;;;-1.70;99.90;;;;;;5036096;28;20152;-44
2020/12/30 06:48:52;;;;;;;5.70;2.65;;;-1.70;99.90;;;;;;5035908;28;20041;-42
2020/12/30 06:51:18;;;;;;;6.38;3.33;;;-1.70;99.90;;;;;;5038473;28;20129;-44
2020/12/30 06:53:56;;;;;;;7.45;3.47;;;-1.70;99.90;;;;;;5035020;28;20104;-45
2020/12/30 06:56:38;;;;;;;4.97;2.95;;;-1.80;99.90;;;;;;5031246;28;20018;-45
2020/12/30 06:59:05;;;;;;;7.30;3.25;;;-1.80;99.90;;;;;;5039304;28;20040;-44
2020/12/30 07:01:57;;;;;;;6.50;4.15;;;-1.80;99.90;;;;;;5035525;28;20029;-44
2020/12/30 07:04:24;;;;;;;5.43;2.97;;;-1.80;99.90;;;;;;5041046;28;20092;-47
2020/12/30 07:06:50;;;;;;;7.65;3.40;;;-1.80;99.90;;;;;;5034437;28;20083;-44
2020/12/30 07:09:34;;;;;;;8.73;3.53;;;-1.80;99.90;;;;;;5037417;28;20033;-43
2020/12/30 07:12:07;;;;;;;9.35;3.13;;;-1.90;99.90;;;;;;5035226;28;20040;-45
2020/12/30 07:14:37;;;;;;;5.53;3.03;;;-1.90;99.90;;;;;;5040572;28;20028;-48
2020/12/30 07:17:04;;;;;;;8.57;3.42;;;-1.90;99.90;;;;;;5038053;28;20477;-44
2020/12/30 07:19:40;;;;;;;6.72;3.53;;;-1.90;99.90;;;;;;5040680;28;20021;-47
2020/12/30 07:22:09;;;;;;;;;;;-1.90;99.90;;;;;;5034604;28;20120;-45
2020/12/30 07:24:53;;;;;;;8.60;3.85;;;-1.90;99.90;;;;;;5029962;28;19909;-47
2020/12/30 07:27:21;;;;;;;6.90;3.75;;;-2.00;99.90;;;;;;5025965;28;20036;-46
2020/12/30 07:29:49;;;;;;;6.82;3.45;;;-2.10;99.90;;;;;;5034069;28;20037;-43
2020/12/30 07:32:16;;;;;;;11.43;3.60;;;-2.00;99.90;;;;;;5037561;28;20037;-43
2020/12/30 07:34:46;;;;;;;6.75;3.40;;;-2.00;99.90;;;;;;5034801;28;20026;-44
2020/12/30 07:37:13;;;;;;;6.82;3.85;;;-1.90;99.90;;;;;;5037622;28;20048;-46
2020/12/30 07:39:41;;;;;;;5.05;3.47;;;-1.90;99.90;;;;;;5037931;28;20136;-46
2020/12/30 07:42:10;;;;;;;7.60;4.22;;;-2.00;99.90;;;;;;5038136;28;20482;-45
2020/12/30 07:44:49;;;;;;;7.63;4.20;;;-1.90;99.90;;;;;;5041419;28;20037;-45
2020/12/30 07:47:16;;;;;;;6.38;3.40;;;-1.80;99.90;;;;;;5032631;28;20029;-43
2020/12/30 07:49:42;;;;;;;10.40;3.83;;;-1.70;99.90;;;;;;5033671;28;20033;-46
2020/12/30 07:52:08;;;;;;;10.60;4.45;;;-1.70;99.90;;;;;;5032869;28;20533;-45
2020/12/30 07:54:34;;;;;;;7.13;3.95;;;-1.80;99.90;;;;;;5038304;28;20044;-45
2020/12/30 07:57:02;;;;;;;9.82;4.43;;;-1.70;99.90;;;;;;5035137;28;20029;-45
2020/12/30 07:59:28;;;;;;;6.63;3.83;;;-1.70;99.90;;;;;;5033730;28;20024;-49
2020/12/30 08:02:04;;;;;;;9.80;3.97;;;-1.60;99.90;;;;;;5033810;28;20439;-44
2020/12/30 08:04:35;;;;;;;7.82;4.43;;;-1.50;99.90;;;;;;5036356;28;20033;-47
2020/12/30 08:07:11;;;;;;;8.68;4.28;;;-1.50;99.90;;;;;;5036869;28;20032;-44
2020/12/30 08:09:41;;;;;;;7.68;4.22;;;-1.40;99.90;;;;;;5036025;28;20049;-45
2020/12/30 08:12:11;;;;;;;9.82;4.53;;;-1.40;99.90;;;;;;5037734;28;20030;-46
2020/12/30 08:14:38;;;;;;;11.68;5.63;;;-1.30;99.90;;;;;;5037621;28;20096;-46
2020/12/30 08:17:06;;;;;;;12.85;5.85;;;-1.10;99.90;;;;;;5032383;28;20037;-45
2020/12/30 08:19:38;;;;;;;7.68;5.00;;;-1.00;99.90;;;;;;5041828;28;20041;-45
2020/12/30 08:22:14;;;;;;;8.13;4.97;;;-0.80;99.90;;;;;;5032728;28;20045;-47
2020/12/30 08:24:47;;;;;;;6.70;4.30;;;-0.70;99.90;;;;;;5036183;28;20398;-45
2020/12/30 08:27:15;;;;;;;5.22;3.58;;;-0.50;99.90;;;;;;5038225;28;20075;-44
2020/12/30 08:29:43;;;;;;;10.00;4.78;;;-0.30;99.90;;;;;;5035741;28;20465;-46
2020/12/30 08:32:22;;;;;;;7.00;3.45;;;-0.20;99.90;;;;;;5041551;28;20037;-42
2020/12/30 08:34:54;;;;;;;7.63;3.90;;;0.00;99.90;;;;;;5050201;28;20033;-44
2020/12/30 08:37:23;;;;;;;6.93;4.20;;;0.20;99.90;;;;;;5033545;28;20064;-45
2020/12/30 08:39:56;;;;;;;7.85;4.05;;;0.40;99.90;;;;;;5032662;28;20034;-46
2020/12/30 08:42:49;;;;;;;10.52;4.18;;;0.60;99.90;;;;;;5034308;28;20154;-44
2020/12/30 08:45:26;;;;;;;5.45;3.50;;;0.80;99.90;;;;;;5038837;28;20021;-46
2020/12/30 08:47:54;;;;;;;8.23;4.20;;;1.00;99.90;;;;;;5029090;28;20029;-46
2020/12/30 08:50:23;;;;;;;7.00;4.15;;;1.20;99.90;;;;;;5033828;28;20055;-49
2020/12/30 08:52:50;;;;;;;6.75;3.72;;;1.40;99.90;;;;;;5034528;28;20384;-45
2020/12/30 08:55:16;;;;;;;6.28;4.03;;;1.70;99.90;;;;;;5030626;28;20116;-47
2020/12/30 08:57:48;;;;;;;6.65;3.97;;;1.90;99.90;;;;;;5037502;28;20529;-45
2020/12/30 09:00:19;;;;;;;8.07;4.10;;;2.10;99.90;;;;;;5036342;28;20057;-44
2020/12/30 09:02:46;;;;;;;8.43;4.00;;;2.30;99.90;;;;;;5045318;28;20021;-45
2020/12/30 09:05:12;;;;;;;5.93;3.00;;;2.50;99.90;;;;;;5031909;28;20044;-44
2020/12/30 09:07:39;;;;;;;8.63;3.88;;;2.70;99.90;;;;;;5047596;28;20482;-48
2020/12/30 09:10:09;;;;;;;5.13;3.80;;;2.90;99.90;;;;;;5035666;28;20061;-48
2020/12/30 09:12:35;;;;;;;9.18;4.07;;;3.00;99.90;;;;;;5035397;28;20108;-47
2020/12/30 09:15:01;;;;;;;6.20;3.97;;;3.10;99.90;;;;;;5036776;28;20024;-45
2020/12/30 09:17:26;;;;;;;7.50;3.97;;;3.20;99.90;;;;;;5035513;28;20034;-46
2020/12/30 09:20:10;;;;;;;6.32;3.50;;;3.30;99.90;;;;;;5035800;28;20022;-43
2020/12/30 09:22:36;;;;;;;9.35;4.55;;;3.40;99.90;;;;;;5031653;28;20156;-45
2020/12/30 09:25:03;;;;;;;7.07;4.20;;;3.50;99.90;;;;;;5037244;28;20021;-45
2020/12/30 09:27:35;;;;;;;7.32;4.78;;;3.60;99.90;;;;;;5043928;28;20079;-47
2020/12/30 09:30:22;;;;;;;7.28;3.95;;;3.60;99.90;;;;;;5041038;28;20025;-47
2020/12/30 09:32:48;;;;;;;7.43;3.60;;;3.70;99.90;;;;;;5034231;28;20447;-47
2020/12/30 09:35:15;;;;;;;6.47;3.50;;;3.70;99.90;;;;;;5034282;28;20097;-51
2020/12/30 09:37:51;;;;;;;18.10;5.43;;;3.70;99.90;;;;;;5034718;28;20057;-50
2020/12/30 09:40:17;;;;;;;7.60;4.45;;;3.80;99.90;;;;;;5035760;28;20405;-45
2020/12/30 09:42:44;;;;;;;10.45;4.97;;;3.80;99.90;;;;;;5034439;28;20037;-45
2020/12/30 09:45:12;;;;;;;12.35;4.20;;;3.90;99.90;;;;;;5034290;28;20033;-50
2020/12/30 09:47:38;;;;;;;7.10;3.88;;;3.90;99.90;;;;;;5031896;28;20480;-47
2020/12/30 09:50:05;;;;;;;8.07;3.42;;;3.90;99.90;;;;;;5033468;28;20106;-51
2020/12/30 09:52:34;;;;;;;6.90;3.20;;;4.00;99.90;;;;;;5031618;28;20355;-52
2020/12/30 09:55:00;;;;;;;7.28;3.15;;;4.00;99.90;;;;;;5035373;28;20104;-46
2020/12/30 09:57:25;;;;;;;6.82;2.80;;;4.00;99.90;;;;;;5042116;28;20138;-50
2020/12/30 09:59:51;;;;;;;7.00;3.80;;;4.10;99.90;;;;;;5045713;28;20057;-48
2020/12/30 10:02:16;;;;;;;6.90;3.05;;;4.10;99.90;;;;;;5044918;28;20032;-47
2020/12/30 10:04:42;;;;;;;4.93;3.10;;;4.20;99.90;;;;;;5050835;28;20551;-45
2020/12/30 10:07:07;;;;;;;5.47;3.45;;;4.30;99.90;;;;;;5052082;28;20029;-46
2020/12/30 10:09:33;;;;;;;6.55;3.67;;;4.30;99.90;;;;;;5044478;28;20035;-45
2020/12/30 10:11:58;;;;;;;5.30;2.95;;;4.40;99.90;;;;;;5047467;28;20048;-49
2020/12/30 10:14:24;;;;;;;5.40;3.13;;;4.40;99.90;;;;;;5039536;28;20386;-49
2020/12/30 10:16:49;;;;;;;7.53;3.47;;;4.40;99.90;;;;;;5035759;28;20039;-48
2020/12/30 10:19:16;;;;;;;4.55;3.22;;;4.40;99.90;;;;;;5042096;28;20036;-49
2020/12/30 10:21:41;;;;;;;5.63;3.42;;;4.30;99.90;;;;;;5040269;28;20108;-49
2020/12/30 10:24:07;;;;;;;5.50;2.92;;;4.40;99.90;;;;;;5041854;28;20100;-48
2020/12/30 10:26:33;;;;;;;4.78;3.40;;;4.30;99.90;;;;;;5047664;28;20025;-46
2020/12/30 10:28:59;;;;;;;5.13;3.67;;;4.30;99.90;;;;;;5049838;28;20036;-50
2020/12/30 10:31:25;;;;;;;7.72;2.70;;;4.30;99.90;;;;;;5038277;28;20466;-46
2020/12/30 10:33:51;;;;;;;6.30;3.35;;;4.20;99.90;;;;;;5042553;28;20032;-49
2020/12/30 10:36:16;;;;;;;5.50;2.83;;;4.20;99.90;;;;;;5038454;28;20025;-49
2020/12/30 10:38:42;;;;;;;6.28;2.83;;;4.20;99.90;;;;;;5033799;28;20032;-47
2020/12/30 10:41:07;;;;;;;6.68;3.22;;;4.10;99.90;;;;;;5043375;28;20413;-46
2020/12/30 10:43:33;;;;;;;4.80;3.03;;;4.10;99.90;;;;;;5045436;28;20419;-49
2020/12/30 10:45:58;;;;;;;5.75;3.22;;;4.10;99.90;;;;;;5041672;28;20051;-51
2020/12/30 10:48:24;;;;;;;5.80;3.40;;;4.10;99.90;;;;;;5042351;28;20025;-47
2020/12/30 10:50:49;;;;;;;7.78;3.70;;;4.00;99.90;;;;;;5044591;28;20063;-47
2020/12/30 10:53:15;;;;;;;4.45;3.22;;;4.00;99.90;;;;;;5039926;28;20497;-48
2020/12/30 10:55:40;;;;;;;6.53;3.10;;;4.00;99.90;;;;;;5042552;28;20033;-48
2020/12/30 10:58:06;;;;;;;6.85;3.97;;;3.90;99.90;;;;;;5043868;28;20021;-45
2020/12/30 11:00:31;;;;;;;4.90;2.47;;;3.90;99.90;;;;;;5037015;28;20033;-48
2020/12/30 11:02:57;;;;;;;8.48;2.58;;;3.90;99.90;;;;;;5038643;28;20220;-47
2020/12/30 11:05:22;;;;;;;5.22;3.13;;;3.80;99.90;;;;;;5038138;28;20035;-47
2020/12/30 11:07:48;;;;;;;5.68;3.00;;;3.80;99.90;;;;;;5038367;28;20102;-48
2020/12/30 11:10:13;;;;;;;5.18;2.90;;;3.80;99.90;;;;;;5039528;28;20486;-52
2020/12/30 11:12:39;;;;;;;5.70;3.42;;;3.80;99.90;;;;;;5037584;28;20037;-50
2020/12/30 11:15:05;;;;;;;5.60;2.97;;;3.80;99.90;;;;;;5037368;28;20040;-48
2020/12/30 11:17:32;;;;;;;5.28;3.20;;;3.90;99.90;;;;;;5032346;28;20022;-46
2020/12/30 11:19:57;;;;;;;5.15;2.67;;;3.90;99.90;;;;;;5037417;28;20021;-49
2020/12/30 11:22:25;;;;;;;5.35;2.88;;;3.90;99.90;;;;;;5036685;28;20024;-45
2020/12/30 11:24:50;;;;;;;6.45;2.60;;;3.80;99.90;;;;;;5039631;28;20032;-48
2020/12/30 11:27:16;;;;;;;7.80;3.22;;;3.80;99.90;;;;;;5048851;28;20021;-44
2020/12/30 11:29:41;;;;;;;8.40;4.07;;;3.90;99.90;;;;;;5043352;28;20498;-47
2020/12/30 11:32:07;;;;;;;5.43;3.15;;;3.90;99.90;;;;;;5040675;28;20032;-46
2020/12/30 11:34:32;;;;;;;4.75;3.50;;;4.00;99.90;;;;;;5046820;28;20020;-47
2020/12/30 11:36:58;;;;;;;5.28;3.35;;;4.10;99.90;;;;;;5045276;28;20032;-47
2020/12/30 11:39:23;;;;;;;9.80;3.25;;;4.00;99.90;;;;;;5044397;28;20052;-49
2020/12/30 11:41:50;;;;;;;7.80;3.55;;;4.10;99.90;;;;;;5044537;28;20032;-52
2020/12/30 11:44:16;;;;;;;9.05;3.38;;;4.10;99.90;;;;;;5045053;28;20033;-50
2020/12/30 11:46:42;;;;;;;4.13;2.80;;;4.10;99.90;;;;;;5042625;28;20047;-46
2020/12/30 11:49:07;;;;;;;5.28;2.63;;;4.10;99.90;;;;;;5040819;28;20033;-50
2020/12/30 11:51:40;;;;;;;9.93;4.20;;;4.10;99.90;;;;;;5042676;28;20045;-47
2020/12/30 11:54:05;;;;;;;10.50;4.57;;;4.10;99.90;;;;;;5042155;28;20036;-46
2020/12/30 11:56:31;;;;;;;14.60;6.07;;;4.10;99.90;;;;;;5043474;28;20016;-48
2020/12/30 11:58:57;;;;;;;14.82;5.50;;;4.10;99.90;;;;;;5037103;28;20390;-49
2020/12/30 12:01:23;;;;;;;15.60;5.78;;;4.20;99.90;;;;;;5036562;28;20039;-46
2020/12/30 12:03:48;;;;;;;14.88;4.57;;;4.10;99.90;;;;;;5048242;28;20500;-48
2020/12/30 12:06:14;;;;;;;11.98;4.60;;;4.10;99.90;;;;;;5036956;28;20036;-47
2020/12/30 12:08:40;;;;;;;9.02;3.63;;;4.10;99.90;;;;;;5037066;28;20490;-47
2020/12/30 12:11:06;;;;;;;7.15;3.90;;;4.20;99.90;;;;;;5033740;28;20072;-46
2020/12/30 12:13:32;;;;;;;10.75;3.70;;;4.30;99.90;;;;;;5042297;28;20067;-46
2020/12/30 12:15:58;;;;;;;6.65;3.40;;;4.20;99.90;;;;;;5041349;28;20116;-49
2020/12/30 12:18:23;;;;;;;3.28;2.38;;;4.20;99.90;;;;;;5039447;28;20355;-47
2020/12/30 12:20:49;;;;;;;3.67;2.65;;;4.20;99.90;;;;;;5034774;28;20068;-48
2020/12/30 12:23:14;;;;;;;4.63;2.65;;;4.10;99.90;;;;;;5039163;28;20029;-48
2020/12/30 12:25:43;;;;;;;4.72;2.38;;;4.20;99.90;;;;;;5039655;28;20029;-45
2020/12/30 12:28:09;;;;;;;5.40;3.05;;;4.20;99.90;;;;;;5037861;28;20047;-50
2020/12/30 12:30:34;;;;;;;5.20;2.80;;;4.20;99.90;;;;;;5042215;28;20040;-46
2020/12/30 12:33:00;;;;;;;5.65;3.15;;;4.20;99.90;;;;;;5043539;28;20390;-47
2020/12/30 12:35:25;;;;;;;5.90;3.05;;;4.30;99.90;;;;;;5034372;28;20100;-45
2020/12/30 12:38:08;;;;;;;4.25;2.80;;;4.30;99.90;;;;;;5038482;28;20485;-48
2020/12/30 12:40:34;;;;;;;4.97;3.03;;;4.40;99.90;;;;;;5037242;28;20028;-46
2020/12/30 12:43:01;;;;;;;5.07;3.50;;;4.30;99.90;;;;;;5040555;28;20032;-48
2020/12/30 12:45:26;;;;;;;7.28;3.72;;;4.30;99.90;;;;;;5035946;28;20067;-43
2020/12/30 12:47:52;;;;;;;7.25;3.78;;;4.40;99.90;;;;;;5033113;28;20362;-48
2020/12/30 12:50:17;;;;;;;4.60;2.75;;;4.40;99.90;;;;;;5037330;28;20073;-45
2020/12/30 12:52:43;;;;;;;6.95;3.95;;;4.50;99.90;;;;;;5038324;28;20025;-46
2020/12/30 12:55:08;;;;;;;5.57;3.47;;;4.50;99.90;;;;;;5044036;28;20033;-47